sensor_id;sensor_type;location;lat;lon;timestamp;temperature;humidity
10123;DHT22;5101;49.038;8.710;2023-05-14T00:00:24;13.70;99.90
10123;DHT22;5101;49.038;8.710;2023-05-14T00:02:49;13.70;99.90
10123;DHT22;5101;49.038;8.710;2023-05-14T00:05:15;13.70;99.90
10123;DHT22;5101;49.038;8.710;2023-05-14T00:07:40;13.70;99.90
10123;DHT22;5101;49.038;8.710;2023-05-14T00:10:06;13.70;99.90
10123;DHT22;5101;49.038;8.710;2023-05-14T00:12:32;13.70;99.90
10123;DHT22;5101;49.038;8.710;2023-05-14T00:14:57;13.70;99.90
10123;DHT22;5101;49.038;8.710;2023-05-14T00:17:23;13.70;99.90
10123;DHT22;5101;49.038;8.710;2023-05-14T00:19:48;13.70;99.90
10123;DHT22;5101;49.038;8.710;2023-05-14T00:22:14;13.70;99.90
10123;DHT22;5101;49.038;8.710;2023-05-14T00:24:39;13.70;99.90
10123;DHT22;5101;49.038;8.710;2023-05-14T00:27:05;13.70;99.90
10123;DHT22;5101;49.038;8.710;2023-05-14T00:29:31;13.70;99.90
10123;DHT22;5101;49.038;8.710;2023-05-14T00:31:56;13.70;99.90
10123;DHT22;5101;49.038;8.710;2023-05-14T00:34:23;13.70;99.90
10123;DHT22;5101;49.038;8.710;2023-05-14T00:36:50;13.60;99.90
10123;DHT22;5101;49.038;8.710;2023-05-14T00:39:15;13.60;99.90
10123;DHT22;5101;49.038;8.710;2023-05-14T00:41:41;13.60;99.90
10123;DHT22;5101;49.038;8.710;2023-05-14T00:44:06;13.60;99.90
10123;DHT22;5101;49.038;8.710;2023-05-14T00:46:32;13.60;99.90
10123;DHT22;5101;49.038;8.710;2023-05-14T00:48:57;13.60;99.90
10123;DHT22;5101;49.038;8.710;2023-05-14T00:51:24;13.60;99.90
10123;DHT22;5101;49.038;8.710;2023-05-14T00:53:50;13.60;99.90
10123;DHT22;5101;49.038;8.710;2023-05-14T00:56:16;13.50;99.90
10123;DHT22;5101;49.038;8.710;2023-05-14T00:58:42;13.50;99.90
10123;DHT22;5101;49.038;8.710;2023-05-14T01:01:08;13.50;99.90
10123;DHT22;5101;49.038;8.710;2023-05-14T01:03:34;13.40;99.90
10123;DHT22;5101;49.038;8.710;2023-05-14T01:06:10;13.40;99.90
10123;DHT22;5101;49.038;8.710;2023-05-14T01:11:33;13.40;99.90
10123;DHT22;5101;49.038;8.710;2023-05-14T01:16:32;13.30;99.90
10123;DHT22;5101;49.038;8.710;2023-05-14T01:18:59;13.20;99.90
10123;DHT22;5101;49.038;8.710;2023-05-14T01:21:34;13.10;99.90
10123;DHT22;5101;49.038;8.710;2023-05-14T01:24:00;13.10;99.90
10123;DHT22;5101;49.038;8.710;2023-05-14T01:26:26;13.00;99.90
10123;DHT22;5101;49.038;8.710;2023-05-14T01:28:53;13.00;99.90
10123;DHT22;5101;49.038;8.710;2023-05-14T01:31:22;13.00;99.90
10123;DHT22;5101;49.038;8.710;2023-05-14T01:33:53;13.00;99.90
10123;DHT22;5101;49.038;8.710;2023-05-14T01:36:21;12.90;99.90
10123;DHT22;5101;49.038;8.710;2023-05-14T01:38:48;12.90;99.90
10123;DHT22;5101;49.038;8.710;2023-05-14T01:41:15;12.90;99.90
10123;DHT22;5101;49.038;8.710;2023-05-14T01:43:42;12.90;99.90
10123;DHT22;5101;49.038;8.710;2023-05-14T01:46:08;12.80;99.90
10123;DHT22;5101;49.038;8.710;2023-05-14T01:48:33;12.80;99.90
10123;DHT22;5101;49.038;8.710;2023-05-14T01:50:59;12.70;99.90
10123;DHT22;5101;49.038;8.710;2023-05-14T01:53:25;12.70;99.90
10123;DHT22;5101;49.038;8.710;2023-05-14T01:55:50;12.70;99.90
10123;DHT22;5101;49.038;8.710;2023-05-14T01:58:16;12.70;99.90
10123;DHT22;5101;49.038;8.710;2023-05-14T02:00:41;12.60;99.90
10123;DHT22;5101;49.038;8.710;2023-05-14T02:03:07;12.60;99.90
10123;DHT22;5101;49.038;8.710;2023-05-14T02:05:32;12.60;99.90
10123;DHT22;5101;49.038;8.710;2023-05-14T02:07:58;12.50;99.90
10123;DHT22;5101;49.038;8.710;2023-05-14T02:10:23;12.50;99.90
10123;DHT22;5101;49.038;8.710;2023-05-14T02:12:49;12.50;99.90
10123;DHT22;5101;49.038;8.710;2023-05-14T02:15:14;12.50;99.90
10123;DHT22;5101;49.038;8.710;2023-05-14T02:17:40;12.50;99.90
10123;DHT22;5101;49.038;8.710;2023-05-14T02:20:06;12.50;99.90
10123;DHT22;5101;49.038;8.710;2023-05-14T02:22:32;12.40;99.90
10123;DHT22;5101;49.038;8.710;2023-05-14T02:24:57;12.40;99.90
10123;DHT22;5101;49.038;8.710;2023-05-14T02:27:23;12.40;99.90
10123;DHT22;5101;49.038;8.710;2023-05-14T02:29:48;12.40;99.90
10123;DHT22;5101;49.038;8.710;2023-05-14T02:32:14;12.40;99.90
10123;DHT22;5101;49.038;8.710;2023-05-14T02:34:39;12.40;99.90
10123;DHT22;5101;49.038;8.710;2023-05-14T02:37:05;12.30;99.90
10123;DHT22;5101;49.038;8.710;2023-05-14T02:39:30;12.20;99.90
10123;DHT22;5101;49.038;8.710;2023-05-14T02:41:56;12.20;99.90
10123;DHT22;5101;49.038;8.710;2023-05-14T02:44:21;12.20;99.90
10123;DHT22;5101;49.038;8.710;2023-05-14T02:46:47;12.20;99.90
10123;DHT22;5101;49.038;8.710;2023-05-14T02:49:12;12.20;99.90
10123;DHT22;5101;49.038;8.710;2023-05-14T02:51:37;12.20;99.90
10123;DHT22;5101;49.038;8.710;2023-05-14T02:54:04;12.20;99.90
10123;DHT22;5101;49.038;8.710;2023-05-14T02:56:29;12.20;99.90
10123;DHT22;5101;49.038;8.710;2023-05-14T02:58:55;12.20;99.90
10123;DHT22;5101;49.038;8.710;2023-05-14T03:01:20;12.20;99.90
10123;DHT22;5101;49.038;8.710;2023-05-14T03:03:46;12.20;99.90
10123;DHT22;5101;49.038;8.710;2023-05-14T03:06:11;12.20;99.90
10123;DHT22;5101;49.038;8.710;2023-05-14T03:08:37;12.20;99.90
10123;DHT22;5101;49.038;8.710;2023-05-14T03:11:05;12.20;99.90
10123;DHT22;5101;49.038;8.710;2023-05-14T03:13:31;12.20;99.90
10123;DHT22;5101;49.038;8.710;2023-05-14T03:15:56;12.20;99.90
10123;DHT22;5101;49.038;8.710;2023-05-14T03:18:22;12.10;99.90
10123;DHT22;5101;49.038;8.710;2023-05-14T03:20:47;12.10;99.90
10123;DHT22;5101;49.038;8.710;2023-05-14T03:23:13;12.10;99.90
10123;DHT22;5101;49.038;8.710;2023-05-14T03:25:39;12.10;99.90
10123;DHT22;5101;49.038;8.710;2023-05-14T03:28:05;12.00;99.90
10123;DHT22;5101;49.038;8.710;2023-05-14T03:30:31;12.00;99.90
10123;DHT22;5101;49.038;8.710;2023-05-14T03:32:56;12.00;99.90
10123;DHT22;5101;49.038;8.710;2023-05-14T03:35:22;11.90;99.90
10123;DHT22;5101;49.038;8.710;2023-05-14T03:37:47;11.90;99.90
10123;DHT22;5101;49.038;8.710;2023-05-14T03:40:13;11.90;99.90
10123;DHT22;5101;49.038;8.710;2023-05-14T03:42:39;11.90;99.90
10123;DHT22;5101;49.038;8.710;2023-05-14T03:45:05;11.90;99.90
10123;DHT22;5101;49.038;8.710;2023-05-14T03:47:31;11.80;99.90
10123;DHT22;5101;49.038;8.710;2023-05-14T03:49:56;11.80;99.90
10123;DHT22;5101;49.038;8.710;2023-05-14T03:52:22;11.80;99.90
10123;DHT22;5101;49.038;8.710;2023-05-14T03:54:48;11.70;99.90
10123;DHT22;5101;49.038;8.710;2023-05-14T03:57:13;11.70;99.90
10123;DHT22;5101;49.038;8.710;2023-05-14T03:59:38;11.70;99.90
10123;DHT22;5101;49.038;8.710;2023-05-14T04:02:04;11.70;99.90
10123;DHT22;5101;49.038;8.710;2023-05-14T04:04:30;11.60;99.90
10123;DHT22;5101;49.038;8.710;2023-05-14T04:06:55;11.60;99.90
10123;DHT22;5101;49.038;8.710;2023-05-14T04:09:21;11.60;99.90
10123;DHT22;5101;49.038;8.710;2023-05-14T04:11:47;11.60;99.90
10123;DHT22;5101;49.038;8.710;2023-05-14T04:14:12;11.60;99.90
10123;DHT22;5101;49.038;8.710;2023-05-14T04:16:38;11.60;99.90
10123;DHT22;5101;49.038;8.710;2023-05-14T04:19:03;11.60;99.90
10123;DHT22;5101;49.038;8.710;2023-05-14T04:21:30;11.60;99.90
10123;DHT22;5101;49.038;8.710;2023-05-14T04:23:55;11.60;99.90
10123;DHT22;5101;49.038;8.710;2023-05-14T04:26:21;11.60;99.90
10123;DHT22;5101;49.038;8.710;2023-05-14T04:28:47;11.60;99.90
10123;DHT22;5101;49.038;8.710;2023-05-14T04:31:12;11.60;99.90
10123;DHT22;5101;49.038;8.710;2023-05-14T04:33:38;11.60;99.90
10123;DHT22;5101;49.038;8.710;2023-05-14T04:36:04;11.60;99.90
10123;DHT22;5101;49.038;8.710;2023-05-14T04:38:30;11.70;99.90
10123;DHT22;5101;49.038;8.710;2023-05-14T04:40:56;11.70;99.90
10123;DHT22;5101;49.038;8.710;2023-05-14T04:43:22;11.70;99.90
10123;DHT22;5101;49.038;8.710;2023-05-14T04:45:48;11.80;99.90
10123;DHT22;5101;49.038;8.710;2023-05-14T04:48:13;11.80;99.90
10123;DHT22;5101;49.038;8.710;2023-05-14T04:50:39;11.80;99.90
10123;DHT22;5101;49.038;8.710;2023-05-14T04:53:04;11.90;99.90
10123;DHT22;5101;49.038;8.710;2023-05-14T04:55:30;11.90;99.90
10123;DHT22;5101;49.038;8.710;2023-05-14T04:57:55;12.00;99.90
10123;DHT22;5101;49.038;8.710;2023-05-14T05:00:21;12.10;99.90
10123;DHT22;5101;49.038;8.710;2023-05-14T05:02:47;12.20;99.90
10123;DHT22;5101;49.038;8.710;2023-05-14T05:05:12;12.20;99.90
10123;DHT22;5101;49.038;8.710;2023-05-14T05:07:38;12.30;99.90
10123;DHT22;5101;49.038;8.710;2023-05-14T05:10:04;12.40;99.90
10123;DHT22;5101;49.038;8.710;2023-05-14T05:12:30;12.50;99.90
10123;DHT22;5101;49.038;8.710;2023-05-14T05:14:56;12.60;99.90
10123;DHT22;5101;49.038;8.710;2023-05-14T05:17:22;12.60;99.90
10123;DHT22;5101;49.038;8.710;2023-05-14T05:19:48;12.70;99.90
10123;DHT22;5101;49.038;8.710;2023-05-14T05:22:13;12.80;99.90
10123;DHT22;5101;49.038;8.710;2023-05-14T05:24:39;12.90;99.90
10123;DHT22;5101;49.038;8.710;2023-05-14T05:27:05;12.90;99.90
10123;DHT22;5101;49.038;8.710;2023-05-14T05:29:30;13.00;99.90
10123;DHT22;5101;49.038;8.710;2023-05-14T05:31:56;13.10;99.90
10123;DHT22;5101;49.038;8.710;2023-05-14T05:34:21;13.10;99.90
10123;DHT22;5101;49.038;8.710;2023-05-14T05:36:47;13.20;99.90
10123;DHT22;5101;49.038;8.710;2023-05-14T05:39:12;13.20;99.90
10123;DHT22;5101;49.038;8.710;2023-05-14T05:41:38;13.40;99.90
10123;DHT22;5101;49.038;8.710;2023-05-14T05:44:04;13.40;99.90
10123;DHT22;5101;49.038;8.710;2023-05-14T05:46:29;13.50;99.90
10123;DHT22;5101;49.038;8.710;2023-05-14T05:48:55;13.50;99.90
10123;DHT22;5101;49.038;8.710;2023-05-14T05:51:20;13.60;99.90
10123;DHT22;5101;49.038;8.710;2023-05-14T05:53:46;13.70;99.90
10123;DHT22;5101;49.038;8.710;2023-05-14T05:56:11;13.80;99.90
10123;DHT22;5101;49.038;8.710;2023-05-14T05:58:37;13.80;99.90
10123;DHT22;5101;49.038;8.710;2023-05-14T06:01:03;13.90;99.90
10123;DHT22;5101;49.038;8.710;2023-05-14T06:03:28;14.00;99.90
10123;DHT22;5101;49.038;8.710;2023-05-14T06:05:54;14.10;99.90
10123;DHT22;5101;49.038;8.710;2023-05-14T06:08:19;14.10;99.90
10123;DHT22;5101;49.038;8.710;2023-05-14T06:10:45;14.10;99.90
10123;DHT22;5101;49.038;8.710;2023-05-14T06:13:11;14.20;99.90
10123;DHT22;5101;49.038;8.710;2023-05-14T06:15:36;14.20;99.90
10123;DHT22;5101;49.038;8.710;2023-05-14T06:18:02;14.10;99.90
10123;DHT22;5101;49.038;8.710;2023-05-14T06:20:27;14.20;99.90
10123;DHT22;5101;49.038;8.710;2023-05-14T06:22:53;14.10;99.90
10123;DHT22;5101;49.038;8.710;2023-05-14T06:25:18;14.10;99.90
10123;DHT22;5101;49.038;8.710;2023-05-14T06:27:44;14.10;99.90
10123;DHT22;5101;49.038;8.710;2023-05-14T06:30:10;14.10;99.90
10123;DHT22;5101;49.038;8.710;2023-05-14T06:32:36;14.20;99.90
10123;DHT22;5101;49.038;8.710;2023-05-14T06:35:01;14.10;99.90
10123;DHT22;5101;49.038;8.710;2023-05-14T06:37:27;14.20;99.90
10123;DHT22;5101;49.038;8.710;2023-05-14T06:39:52;14.30;99.90
10123;DHT22;5101;49.038;8.710;2023-05-14T06:42:18;14.20;99.90
10123;DHT22;5101;49.038;8.710;2023-05-14T06:44:44;14.30;99.90
10123;DHT22;5101;49.038;8.710;2023-05-14T06:47:10;14.20;99.90
10123;DHT22;5101;49.038;8.710;2023-05-14T06:49:35;14.20;99.90
10123;DHT22;5101;49.038;8.710;2023-05-14T06:52:01;14.20;99.90
10123;DHT22;5101;49.038;8.710;2023-05-14T06:54:27;14.20;99.90
10123;DHT22;5101;49.038;8.710;2023-05-14T06:56:53;14.20;99.90
10123;DHT22;5101;49.038;8.710;2023-05-14T06:59:18;14.30;99.90
10123;DHT22;5101;49.038;8.710;2023-05-14T07:01:44;14.50;99.90
10123;DHT22;5101;49.038;8.710;2023-05-14T07:04:09;14.70;99.90
10123;DHT22;5101;49.038;8.710;2023-05-14T07:06:35;14.90;99.90
10123;DHT22;5101;49.038;8.710;2023-05-14T07:09:00;15.10;99.70
10123;DHT22;5101;49.038;8.710;2023-05-14T07:11:26;15.30;99.60
10123;DHT22;5101;49.038;8.710;2023-05-14T07:13:51;15.60;99.10
10123;DHT22;5101;49.038;8.710;2023-05-14T07:16:17;15.70;98.60
10123;DHT22;5101;49.038;8.710;2023-05-14T07:18:43;15.90;98.30
10123;DHT22;5101;49.038;8.710;2023-05-14T07:21:09;16.30;98.10
10123;DHT22;5101;49.038;8.710;2023-05-14T07:23:35;16.70;97.80
10123;DHT22;5101;49.038;8.710;2023-05-14T07:26:06;17.10;97.00
10123;DHT22;5101;49.038;8.710;2023-05-14T07:28:32;17.50;96.00
10123;DHT22;5101;49.038;8.710;2023-05-14T07:30:57;18.00;95.20
10123;DHT22;5101;49.038;8.710;2023-05-14T07:33:23;18.30;94.00
10123;DHT22;5101;49.038;8.710;2023-05-14T07:35:49;18.60;93.30
10123;DHT22;5101;49.038;8.710;2023-05-14T07:38:15;18.70;92.30
10123;DHT22;5101;49.038;8.710;2023-05-14T07:40:40;19.00;91.90
10123;DHT22;5101;49.038;8.710;2023-05-14T07:43:06;19.50;91.30
10123;DHT22;5101;49.038;8.710;2023-05-14T07:45:31;19.90;90.50
10123;DHT22;5101;49.038;8.710;2023-05-14T07:47:57;20.40;89.20
10123;DHT22;5101;49.038;8.710;2023-05-14T07:50:22;20.90;87.80
10123;DHT22;5101;49.038;8.710;2023-05-14T07:52:48;21.20;85.90
10123;DHT22;5101;49.038;8.710;2023-05-14T07:55:13;21.30;84.20
10123;DHT22;5101;49.038;8.710;2023-05-14T07:57:39;21.40;83.50
10123;DHT22;5101;49.038;8.710;2023-05-14T08:00:05;21.60;81.90
10123;DHT22;5101;49.038;8.710;2023-05-14T08:02:33;21.40;81.30
10123;DHT22;5101;49.038;8.710;2023-05-14T08:04:59;21.80;80.40
10123;DHT22;5101;49.038;8.710;2023-05-14T08:07:24;22.30;79.30
10123;DHT22;5101;49.038;8.710;2023-05-14T08:09:52;22.70;78.20
10123;DHT22;5101;49.038;8.710;2023-05-14T08:12:17;22.60;76.90
10123;DHT22;5101;49.038;8.710;2023-05-14T08:14:43;22.80;76.30
10123;DHT22;5101;49.038;8.710;2023-05-14T08:17:08;23.10;75.40
10123;DHT22;5101;49.038;8.710;2023-05-14T08:19:34;23.30;74.40
10123;DHT22;5101;49.038;8.710;2023-05-14T08:21:59;23.20;73.40
10123;DHT22;5101;49.038;8.710;2023-05-14T08:24:25;23.40;73.00
10123;DHT22;5101;49.038;8.710;2023-05-14T08:26:50;23.60;72.40
10123;DHT22;5101;49.038;8.710;2023-05-14T08:29:16;23.70;71.40
10123;DHT22;5101;49.038;8.710;2023-05-14T08:31:42;23.90;70.10
10123;DHT22;5101;49.038;8.710;2023-05-14T08:34:07;24.10;70.00
10123;DHT22;5101;49.038;8.710;2023-05-14T08:36:33;24.10;69.50
10123;DHT22;5101;49.038;8.710;2023-05-14T08:38:58;24.20;69.20
10123;DHT22;5101;49.038;8.710;2023-05-14T08:41:24;24.30;68.80
10123;DHT22;5101;49.038;8.710;2023-05-14T08:46:28;24.40;67.30
10123;DHT22;5101;49.038;8.710;2023-05-14T08:48:59;24.60;66.80
10123;DHT22;5101;49.038;8.710;2023-05-14T08:51:28;24.70;66.30
10123;DHT22;5101;49.038;8.710;2023-05-14T08:53:54;24.70;65.20
10123;DHT22;5101;49.038;8.710;2023-05-14T08:56:20;24.80;65.40
10123;DHT22;5101;49.038;8.710;2023-05-14T08:58:46;24.70;65.30
10123;DHT22;5101;49.038;8.710;2023-05-14T09:01:12;24.50;65.20
10123;DHT22;5101;49.038;8.710;2023-05-14T09:03:38;24.60;65.30
10123;DHT22;5101;49.038;8.710;2023-05-14T09:06:04;24.90;65.10
10123;DHT22;5101;49.038;8.710;2023-05-14T09:08:30;25.20;64.40
10123;DHT22;5101;49.038;8.710;2023-05-14T09:10:55;25.30;63.60
10123;DHT22;5101;49.038;8.710;2023-05-14T09:13:21;25.10;64.20
10123;DHT22;5101;49.038;8.710;2023-05-14T09:15:47;25.20;62.60
10123;DHT22;5101;49.038;8.710;2023-05-14T09:18:13;25.30;61.60
10123;DHT22;5101;49.038;8.710;2023-05-14T09:20:39;25.10;61.50
10123;DHT22;5101;49.038;8.710;2023-05-14T09:23:04;25.30;61.50
10123;DHT22;5101;49.038;8.710;2023-05-14T09:25:30;25.40;61.10
10123;DHT22;5101;49.038;8.710;2023-05-14T09:27:57;25.30;61.40
10123;DHT22;5101;49.038;8.710;2023-05-14T09:30:23;25.40;61.60
10123;DHT22;5101;49.038;8.710;2023-05-14T09:32:49;25.50;62.00
10123;DHT22;5101;49.038;8.710;2023-05-14T09:35:19;25.60;61.90
10123;DHT22;5101;49.038;8.710;2023-05-14T09:37:49;25.50;61.60
10123;DHT22;5101;49.038;8.710;2023-05-14T09:40:17;25.60;61.30
10123;DHT22;5101;49.038;8.710;2023-05-14T09:42:42;25.60;61.00
10123;DHT22;5101;49.038;8.710;2023-05-14T09:45:09;25.40;59.50
10123;DHT22;5101;49.038;8.710;2023-05-14T09:47:35;25.00;59.30
10123;DHT22;5101;49.038;8.710;2023-05-14T09:50:01;24.90;58.60
10123;DHT22;5101;49.038;8.710;2023-05-14T09:52:27;25.00;59.00
10123;DHT22;5101;49.038;8.710;2023-05-14T09:54:52;24.90;59.80
10123;DHT22;5101;49.038;8.710;2023-05-14T09:57:19;24.90;58.90
10123;DHT22;5101;49.038;8.710;2023-05-14T09:59:44;24.70;59.20
10123;DHT22;5101;49.038;8.710;2023-05-14T10:02:19;24.60;59.60
10123;DHT22;5101;49.038;8.710;2023-05-14T10:04:47;24.30;59.90
10123;DHT22;5101;49.038;8.710;2023-05-14T10:07:15;23.90;59.80
10123;DHT22;5101;49.038;8.710;2023-05-14T10:09:42;23.50;60.40
10123;DHT22;5101;49.038;8.710;2023-05-14T10:12:08;23.50;60.40
10123;DHT22;5101;49.038;8.710;2023-05-14T10:14:46;23.50;60.70
10123;DHT22;5101;49.038;8.710;2023-05-14T10:17:20;23.40;60.10
10123;DHT22;5101;49.038;8.710;2023-05-14T10:19:49;23.20;60.00
10123;DHT22;5101;49.038;8.710;2023-05-14T10:22:18;23.30;60.20
10123;DHT22;5101;49.038;8.710;2023-05-14T10:24:47;22.70;60.50
10123;DHT22;5101;49.038;8.710;2023-05-14T10:27:14;22.60;61.30
10123;DHT22;5101;49.038;8.710;2023-05-14T10:29:53;22.60;61.90
10123;DHT22;5101;49.038;8.710;2023-05-14T10:32:21;22.40;62.10
10123;DHT22;5101;49.038;8.710;2023-05-14T10:34:47;22.10;61.80
10123;DHT22;5101;49.038;8.710;2023-05-14T10:37:19;21.70;62.40
10123;DHT22;5101;49.038;8.710;2023-05-14T10:42:32;21.80;62.60
10123;DHT22;5101;49.038;8.710;2023-05-14T10:45:03;21.90;63.00
10123;DHT22;5101;49.038;8.710;2023-05-14T10:47:32;21.90;63.90
10123;DHT22;5101;49.038;8.710;2023-05-14T10:50:00;22.00;64.20
10123;DHT22;5101;49.038;8.710;2023-05-14T10:52:26;22.00;64.50
10123;DHT22;5101;49.038;8.710;2023-05-14T10:54:59;21.80;64.20
10123;DHT22;5101;49.038;8.710;2023-05-14T10:57:27;21.80;64.90
10123;DHT22;5101;49.038;8.710;2023-05-14T10:59:55;21.80;64.50
10123;DHT22;5101;49.038;8.710;2023-05-14T11:02:28;21.70;65.10
10123;DHT22;5101;49.038;8.710;2023-05-14T11:05:14;21.70;65.80
10123;DHT22;5101;49.038;8.710;2023-05-14T11:07:46;21.70;66.50
10123;DHT22;5101;49.038;8.710;2023-05-14T11:10:14;21.60;67.50
10123;DHT22;5101;49.038;8.710;2023-05-14T11:12:48;21.70;68.10
10123;DHT22;5101;49.038;8.710;2023-05-14T11:15:15;21.70;68.50
10123;DHT22;5101;49.038;8.710;2023-05-14T11:17:42;21.70;68.00
10123;DHT22;5101;49.038;8.710;2023-05-14T11:20:10;21.80;68.10
10123;DHT22;5101;49.038;8.710;2023-05-14T11:22:36;21.90;68.20
10123;DHT22;5101;49.038;8.710;2023-05-14T11:25:03;21.90;68.30
10123;DHT22;5101;49.038;8.710;2023-05-14T11:27:30;21.80;68.80
10123;DHT22;5101;49.038;8.710;2023-05-14T11:29:56;21.80;68.20
10123;DHT22;5101;49.038;8.710;2023-05-14T11:32:22;21.80;68.10
10123;DHT22;5101;49.038;8.710;2023-05-14T11:34:48;21.70;68.20
10123;DHT22;5101;49.038;8.710;2023-05-14T11:37:14;21.70;68.70
10123;DHT22;5101;49.038;8.710;2023-05-14T11:39:46;21.80;68.70
10123;DHT22;5101;49.038;8.710;2023-05-14T11:42:12;21.80;68.20
10123;DHT22;5101;49.038;8.710;2023-05-14T11:44:39;21.90;68.10
10123;DHT22;5101;49.038;8.710;2023-05-14T11:47:05;21.90;67.90
10123;DHT22;5101;49.038;8.710;2023-05-14T11:49:31;21.90;67.80
10123;DHT22;5101;49.038;8.710;2023-05-14T11:52:07;21.90;67.80
10123;DHT22;5101;49.038;8.710;2023-05-14T11:54:33;22.10;68.10
10123;DHT22;5101;49.038;8.710;2023-05-14T11:57:01;22.20;68.10
10123;DHT22;5101;49.038;8.710;2023-05-14T11:59:30;22.30;68.40
10123;DHT22;5101;49.038;8.710;2023-05-14T12:01:57;22.20;68.40
10123;DHT22;5101;49.038;8.710;2023-05-14T12:04:23;22.20;68.60
10123;DHT22;5101;49.038;8.710;2023-05-14T12:06:50;22.00;68.10
10123;DHT22;5101;49.038;8.710;2023-05-14T12:09:17;22.10;68.20
10123;DHT22;5101;49.038;8.710;2023-05-14T12:11:44;22.10;67.90
10123;DHT22;5101;49.038;8.710;2023-05-14T12:14:15;22.10;67.90
10123;DHT22;5101;49.038;8.710;2023-05-14T12:16:42;22.10;67.80
10123;DHT22;5101;49.038;8.710;2023-05-14T12:19:09;22.10;67.60
10123;DHT22;5101;49.038;8.710;2023-05-14T12:21:36;22.20;67.60
10123;DHT22;5101;49.038;8.710;2023-05-14T12:24:01;22.30;67.70
10123;DHT22;5101;49.038;8.710;2023-05-14T12:26:30;22.20;67.40
10123;DHT22;5101;49.038;8.710;2023-05-14T12:28:59;22.20;67.30
10123;DHT22;5101;49.038;8.710;2023-05-14T12:31:29;22.00;67.30
10123;DHT22;5101;49.038;8.710;2023-05-14T12:33:55;22.10;67.60
10123;DHT22;5101;49.038;8.710;2023-05-14T12:36:21;22.10;67.60
10123;DHT22;5101;49.038;8.710;2023-05-14T12:38:46;22.10;67.50
10123;DHT22;5101;49.038;8.710;2023-05-14T12:41:12;22.10;67.20
10123;DHT22;5101;49.038;8.710;2023-05-14T12:43:41;22.00;66.70
10123;DHT22;5101;49.038;8.710;2023-05-14T12:46:06;22.00;66.70
10123;DHT22;5101;49.038;8.710;2023-05-14T12:48:32;22.00;67.20
10123;DHT22;5101;49.038;8.710;2023-05-14T12:50:57;21.90;67.50
10123;DHT22;5101;49.038;8.710;2023-05-14T12:53:23;21.80;67.60
10123;DHT22;5101;49.038;8.710;2023-05-14T12:55:48;21.60;67.90
10123;DHT22;5101;49.038;8.710;2023-05-14T12:58:14;21.50;67.90
10123;DHT22;5101;49.038;8.710;2023-05-14T13:00:40;21.60;68.20
10123;DHT22;5101;49.038;8.710;2023-05-14T13:03:06;21.70;68.70
10123;DHT22;5101;49.038;8.710;2023-05-14T13:05:31;21.90;68.90
10123;DHT22;5101;49.038;8.710;2023-05-14T13:07:58;21.60;68.30
10123;DHT22;5101;49.038;8.710;2023-05-14T13:10:24;21.70;68.20
10123;DHT22;5101;49.038;8.710;2023-05-14T13:12:50;21.60;68.10
10123;DHT22;5101;49.038;8.710;2023-05-14T13:15:17;21.70;67.80
10123;DHT22;5101;49.038;8.710;2023-05-14T13:17:42;21.80;67.60
10123;DHT22;5101;49.038;8.710;2023-05-14T13:20:08;21.90;67.50
10123;DHT22;5101;49.038;8.710;2023-05-14T13:22:34;21.90;67.30
10123;DHT22;5101;49.038;8.710;2023-05-14T13:24:59;21.80;67.20
10123;DHT22;5101;49.038;8.710;2023-05-14T13:27:25;21.70;66.80
10123;DHT22;5101;49.038;8.710;2023-05-14T13:29:50;21.50;66.80
10123;DHT22;5101;49.038;8.710;2023-05-14T13:32:16;21.50;66.90
10123;DHT22;5101;49.038;8.710;2023-05-14T13:34:41;21.40;66.90
10123;DHT22;5101;49.038;8.710;2023-05-14T13:37:08;21.30;66.80
10123;DHT22;5101;49.038;8.710;2023-05-14T13:39:34;21.30;66.80
10123;DHT22;5101;49.038;8.710;2023-05-14T13:41:59;21.20;66.80
10123;DHT22;5101;49.038;8.710;2023-05-14T13:44:25;21.20;66.60
10123;DHT22;5101;49.038;8.710;2023-05-14T13:46:51;21.30;66.80
10123;DHT22;5101;49.038;8.710;2023-05-14T13:49:17;21.30;67.00
10123;DHT22;5101;49.038;8.710;2023-05-14T13:51:42;21.50;67.20
10123;DHT22;5101;49.038;8.710;2023-05-14T13:54:08;21.60;66.80
10123;DHT22;5101;49.038;8.710;2023-05-14T13:56:34;21.70;66.60
10123;DHT22;5101;49.038;8.710;2023-05-14T13:58:59;21.80;66.60
10123;DHT22;5101;49.038;8.710;2023-05-14T14:01:25;21.70;66.90
10123;DHT22;5101;49.038;8.710;2023-05-14T14:03:50;21.90;67.20
10123;DHT22;5101;49.038;8.710;2023-05-14T14:06:16;21.80;67.10
10123;DHT22;5101;49.038;8.710;2023-05-14T14:08:41;21.70;66.90
10123;DHT22;5101;49.038;8.710;2023-05-14T14:11:07;21.70;67.10
10123;DHT22;5101;49.038;8.710;2023-05-14T14:13:32;21.70;67.40
10123;DHT22;5101;49.038;8.710;2023-05-14T14:15:58;21.70;67.40
10123;DHT22;5101;49.038;8.710;2023-05-14T14:18:23;21.60;67.40
10123;DHT22;5101;49.038;8.710;2023-05-14T14:20:49;21.70;67.60
10123;DHT22;5101;49.038;8.710;2023-05-14T14:23:14;21.80;67.90
10123;DHT22;5101;49.038;8.710;2023-05-14T14:25:40;21.90;68.00
10123;DHT22;5101;49.038;8.710;2023-05-14T14:28:05;21.90;68.10
10123;DHT22;5101;49.038;8.710;2023-05-14T14:30:31;21.80;68.10
10123;DHT22;5101;49.038;8.710;2023-05-14T14:32:57;21.80;68.10
10123;DHT22;5101;49.038;8.710;2023-05-14T14:35:25;21.80;68.30
10123;DHT22;5101;49.038;8.710;2023-05-14T14:37:50;21.80;68.20
10123;DHT22;5101;49.038;8.710;2023-05-14T14:40:18;21.70;68.00
10123;DHT22;5101;49.038;8.710;2023-05-14T14:42:43;21.70;68.00
10123;DHT22;5101;49.038;8.710;2023-05-14T14:45:09;21.60;67.70
10123;DHT22;5101;49.038;8.710;2023-05-14T14:47:35;21.40;67.80
10123;DHT22;5101;49.038;8.710;2023-05-14T14:50:01;21.50;67.90
10123;DHT22;5101;49.038;8.710;2023-05-14T14:52:27;21.50;67.40
10123;DHT22;5101;49.038;8.710;2023-05-14T14:54:53;21.50;67.10
10123;DHT22;5101;49.038;8.710;2023-05-14T14:57:19;21.40;67.10
10123;DHT22;5101;49.038;8.710;2023-05-14T14:59:46;21.30;67.40
10123;DHT22;5101;49.038;8.710;2023-05-14T15:02:11;21.30;67.70
10123;DHT22;5101;49.038;8.710;2023-05-14T15:04:37;21.30;67.90
10123;DHT22;5101;49.038;8.710;2023-05-14T15:07:03;21.30;67.90
10123;DHT22;5101;49.038;8.710;2023-05-14T15:09:30;21.30;68.00
10123;DHT22;5101;49.038;8.710;2023-05-14T15:11:55;21.40;68.10
10123;DHT22;5101;49.038;8.710;2023-05-14T15:14:21;21.30;68.10
10123;DHT22;5101;49.038;8.710;2023-05-14T15:16:46;21.20;68.10
10123;DHT22;5101;49.038;8.710;2023-05-14T15:19:12;21.30;68.30
10123;DHT22;5101;49.038;8.710;2023-05-14T15:21:38;21.30;68.50
10123;DHT22;5101;49.038;8.710;2023-05-14T15:24:03;21.20;68.40
10123;DHT22;5101;49.038;8.710;2023-05-14T15:26:29;21.10;68.40
10123;DHT22;5101;49.038;8.710;2023-05-14T15:28:55;21.10;68.50
10123;DHT22;5101;49.038;8.710;2023-05-14T15:31:22;21.20;68.30
10123;DHT22;5101;49.038;8.710;2023-05-14T15:33:47;21.10;67.70
10123;DHT22;5101;49.038;8.710;2023-05-14T15:36:13;21.20;67.60
10123;DHT22;5101;49.038;8.710;2023-05-14T15:38:38;21.20;67.70
10123;DHT22;5101;49.038;8.710;2023-05-14T15:41:04;21.10;68.00
10123;DHT22;5101;49.038;8.710;2023-05-14T15:43:30;21.10;68.10
10123;DHT22;5101;49.038;8.710;2023-05-14T15:45:55;21.00;68.30
10123;DHT22;5101;49.038;8.710;2023-05-14T15:48:21;21.00;69.20